Time;durP1;ratioP1;P1;durP2;ratioP2;P2;SDS_P1;SDS_P2;PMS_P1;PMS_P2;Temp;Humidity;BMP_temperature;BMP_pressure;BME280_temperature;BME280_humidity;BME280_pressure;Samples;Min_cycle;Max_cycle;Signal;HPM_P1;HPM_P2
2022/04/16 00:00:22;;;;;;;28.27;20.40;;;;;;;7.17;100.00;101061.42;1766592;81;21094;-82
2022/04/16 00:02:50;;;;;;;30.52;20.02;;;;;;;7.11;100.00;101053.99;1766651;81;22215;-79
2022/04/16 00:05:20;;;;;;;27.52;21.12;;;;;;;7.05;100.00;101050.45;1767540;81;21262;-78
2022/04/16 00:08:06;;;;;;;27.40;20.15;;;;;;;6.98;100.00;101049.92;1767084;81;21605;-78
2022/04/16 00:10:18;;;;;;;26.25;20.20;;;;;;;6.91;100.00;101054.61;1764044;81;21056;-78
2022/04/16 00:12:47;;;;;;;24.20;20.48;;;;;;;6.85;100.00;101053.62;1767234;81;20981;-78
2022/04/16 00:15:15;;;;;;;25.05;18.92;;;;;;;6.81;100.00;101052.12;1766745;81;21161;-78
2022/04/16 00:17:44;;;;;;;25.90;20.23;;;;;;;6.78;100.00;101052.27;1766764;81;21019;-78
2022/04/16 00:20:13;;;;;;;23.65;19.32;;;;;;;6.74;100.00;101043.01;1773369;80;21972;-77
2022/04/16 00:22:40;;;;;;;25.75;19.45;;;;;;;6.69;100.00;101045.01;1774004;80;21061;-79
2022/04/16 00:25:10;;;;;;;22.67;18.32;;;;;;;6.62;100.00;101049.19;1774783;80;21031;-79
2022/04/16 00:27:39;;;;;;;23.87;19.35;;;;;;;6.59;100.00;101045.48;1772830;79;21632;-82
2022/04/16 00:30:07;;;;;;;24.27;18.23;;;;;;;6.56;100.00;101043.03;1774482;80;21009;-83
2022/04/16 00:32:36;;;;;;;21.55;17.27;;;;;;;6.54;100.00;101044.86;1774199;80;21035;-79
2022/04/16 00:35:04;;;;;;;25.45;19.57;;;;;;;6.53;100.00;101038.01;1773962;80;21102;-78
2022/04/16 00:37:33;;;;;;;21.40;17.73;;;;;;;6.51;100.00;101040.30;1742601;80;20995;-81
2022/04/16 00:40:00;;;;;;;27.37;19.05;;;;;;;6.49;100.00;101043.45;1774253;80;21240;-79
2022/04/16 00:42:38;;;;;;;23.50;18.98;;;;;;;6.46;100.00;101040.53;1774400;80;21043;-79
2022/04/16 00:45:07;;;;;;;21.60;18.30;;;;;;;6.43;100.00;101040.70;1773081;80;21043;-79
2022/04/16 00:47:36;;;;;;;25.08;17.80;;;;;;;6.41;100.00;101035.59;1774325;80;22274;-82
2022/04/16 00:50:09;;;;;;;23.02;18.02;;;;;;;6.36;100.00;101035.00;1774273;80;21122;-81
2022/04/16 00:52:40;;;;;;;22.85;18.45;;;;;;;6.34;100.00;101027.77;1774199;80;21585;-79
2022/04/16 00:55:09;;;;;;;25.48;18.90;;;;;;;6.30;100.00;101030.14;1773996;80;21090;-79
2022/04/16 00:57:39;;;;;;;21.62;17.75;;;;;;;6.26;100.00;101030.75;1774538;80;21018;-79
2022/04/16 01:00:09;;;;;;;23.73;16.82;;;;;;;6.22;100.00;101032.28;1774590;80;21091;-81
2022/04/16 01:02:38;;;;;;;21.87;17.45;;;;;;;6.18;100.00;101030.74;1775126;80;21059;-79
2022/04/16 01:05:09;;;;;;;23.50;17.15;;;;;;;6.14;100.00;101032.20;1773999;80;21597;-79
2022/04/16 01:08:04;;;;;;;20.45;17.23;;;;;;;6.08;100.00;101026.49;1725844;80;20996;-78
2022/04/16 01:10:32;;;;;;;20.43;16.02;;;;;;;6.05;100.00;101031.84;1773287;80;21083;-78
2022/04/16 01:13:03;;;;;;;20.05;16.60;;;;;;;6.00;100.00;101028.19;1774679;80;21000;-78
2022/04/16 01:15:31;;;;;;;23.27;18.10;;;;;;;5.99;100.00;101027.33;1774019;80;21079;-84
2022/04/16 01:18:05;;;;;;;20.20;16.87;;;;;;;5.98;100.00;101029.50;1774076;80;21059;-78
2022/04/16 01:20:35;;;;;;;23.85;17.55;;;;;;;6.01;100.00;101024.66;1774158;80;21087;-79
2022/04/16 01:23:03;;;;;;;18.90;16.87;;;;;;;6.02;100.00;101028.09;1774235;80;21047;-79
2022/04/16 01:25:33;;;;;;;22.07;17.00;;;;;;;6.03;100.00;101027.19;1725855;80;21032;-79
2022/04/16 01:28:03;;;;;;;24.72;17.32;;;;;;;6.04;100.00;101026.28;1774533;79;21841;-77
2022/04/16 01:30:31;;;;;;;23.77;17.45;;;;;;;6.03;100.00;101026.72;1773719;80;22279;-79
2022/04/16 01:32:58;;;;;;;22.55;16.65;;;;;;;6.03;100.00;101023.31;1774072;80;20950;-78
2022/04/16 01:35:27;;;;;;;20.80;16.48;;;;;;;6.00;100.00;101018.66;1774012;80;22002;-82
2022/04/16 01:37:54;;;;;;;20.90;17.17;;;;;;;5.98;100.00;101019.16;1773943;80;21033;-78
2022/04/16 01:40:25;;;;;;;23.07;17.85;;;;;;;5.95;100.00;101010.72;1774629;80;21034;-82
2022/04/16 01:42:52;;;;;;;21.75;16.95;;;;;;;5.90;100.00;101012.70;1769902;80;21177;-79
2022/04/16 01:45:19;;;;;;;22.67;17.40;;;;;;;5.84;100.00;101013.83;1742491;80;21806;-77
2022/04/16 01:47:47;;;;;;;27.93;18.42;;;;;;;5.77;100.00;101015.88;1774620;80;21459;-78
2022/04/16 01:50:16;;;;;;;20.68;17.12;;;;;;;5.72;100.00;101012.69;1773810;80;21100;-78
2022/04/16 01:52:46;;;;;;;21.73;17.10;;;;;;;5.68;100.00;101009.41;1773690;80;21152;-77
2022/04/16 01:55:14;;;;;;;17.73;15.55;;;;;;;5.65;100.00;101005.67;1774061;80;21155;-77
2022/04/16 01:57:42;;;;;;;21.15;17.10;;;;;;;5.63;100.00;101006.66;1774366;80;21779;-78
2022/04/16 02:00:14;;;;;;;22.98;16.85;;;;;;;5.59;100.00;101005.16;1774254;80;21060;-78
2022/04/16 02:02:42;;;;;;;22.30;17.90;;;;;;;5.58;100.00;101007.35;1774156;80;21168;-77
2022/04/16 02:05:11;;;;;;;23.20;16.82;;;;;;;5.56;100.00;101003.99;1773455;80;21085;-79
2022/04/16 02:07:43;;;;;;;23.38;17.87;;;;;;;5.52;100.00;101009.33;1773462;80;21211;-78
2022/04/16 02:10:08;;;;;;;22.35;16.48;;;;;;;5.48;100.00;101008.25;1771639;80;21296;-81
2022/04/16 02:12:37;;;;;;;22.00;16.67;;;;;;;5.42;100.00;101005.50;1773851;80;21143;-80
2022/04/16 02:15:06;;;;;;;18.57;15.63;;;;;;;5.37;100.00;101005.71;1774045;80;21634;-79
2022/04/16 02:17:34;;;;;;;17.62;15.30;;;;;;;5.36;100.00;101004.50;1756358;79;21124;-79
2022/04/16 02:20:09;;;;;;;22.52;16.37;;;;;;;5.35;100.00;101008.81;1752244;80;21080;-79
2022/04/16 02:22:46;;;;;;;21.12;16.32;;;;;;;5.34;100.00;101001.97;1737170;81;21452;-77
2022/04/16 02:25:20;;;;;;;21.05;16.42;;;;;;;5.34;100.00;100999.86;1736444;81;21575;-81
2022/04/16 02:27:48;;;;;;;22.85;16.15;;;;;;;5.34;100.00;101001.15;1737041;81;21504;-79
2022/04/16 02:30:16;;;;;;;18.45;15.50;;;;;;;5.32;100.00;101000.38;1737572;81;21085;-77
2022/04/16 02:32:48;;;;;;;21.80;16.10;;;;;;;5.27;100.00;100996.71;1736463;81;21137;-78
2022/04/16 02:35:17;;;;;;;24.50;16.85;;;;;;;5.25;100.00;101002.39;1736761;81;21077;-77
2022/04/16 02:37:46;;;;;;;20.23;16.02;;;;;;;5.21;100.00;100999.12;1736822;81;21074;-81
2022/04/16 02:40:16;;;;;;;23.00;16.15;;;;;;;5.17;100.00;100997.60;1737151;81;21046;-79
2022/04/16 02:42:45;;;;;;;20.17;15.43;;;;;;;5.19;100.00;100998.81;1736941;81;21069;-78
2022/04/16 02:48:01;;;;;;;21.60;15.90;;;;;;;5.15;100.00;101007.16;1736494;81;21022;-81
2022/04/16 02:50:28;;;;;;;21.07;15.50;;;;;;;5.13;100.00;101005.56;1737014;81;21779;-79
2022/04/16 02:52:56;;;;;;;18.98;14.23;;;;;;;5.13;100.00;101001.69;1736603;81;21539;-78
2022/04/16 02:55:26;;;;;;;16.20;13.62;;;;;;;5.11;100.00;101003.49;1737136;82;21058;-80
2022/04/16 02:57:53;;;;;;;17.67;13.62;;;;;;;5.09;100.00;101000.17;1736950;81;21123;-78
2022/04/16 03:00:21;;;;;;;17.12;13.40;;;;;;;5.07;100.00;101003.27;1737118;81;21511;-78
2022/04/16 03:02:50;;;;;;;19.90;15.05;;;;;;;5.05;100.00;101000.30;1736955;81;21022;-80
2022/04/16 03:05:18;;;;;;;17.62;13.72;;;;;;;5.07;100.00;101003.27;1736887;81;21101;-79
2022/04/16 03:07:46;;;;;;;19.77;14.30;;;;;;;5.05;100.00;101000.30;1736979;81;21101;-78
2022/04/16 03:10:15;;;;;;;18.67;14.15;;;;;;;5.04;100.00;100994.75;1730421;81;21072;-76
2022/04/16 03:12:51;;;;;;;17.80;13.75;;;;;;;5.05;100.00;100996.86;1724106;81;20950;-78
2022/04/16 03:18:10;;;;;;;19.15;16.00;;;;;;;5.06;100.00;100998.54;1723946;81;20986;-79
2022/04/16 03:20:40;;;;;;;21.93;16.57;;;;;;;5.07;100.00;100984.73;1738192;80;21042;-78
2022/04/16 03:23:09;;;;;;;20.20;15.40;;;;;;;5.08;100.00;100987.70;1744591;81;21238;-79
2022/04/16 03:25:41;;;;;;;22.77;15.28;;;;;;;5.11;100.00;100985.42;1744302;80;21069;-77
2022/04/16 03:28:09;;;;;;;21.52;15.40;;;;;;;5.15;100.00;100989.09;1744489;80;21042;-77
2022/04/16 03:30:38;;;;;;;20.20;15.43;;;;;;;5.19;100.00;100982.89;1744408;81;21089;-83
2022/04/16 03:33:05;;;;;;;19.25;15.55;;;;;;;5.25;100.00;100988.20;1744537;80;21119;-79
2022/04/16 03:35:34;;;;;;;23.77;17.02;;;;;;;5.30;100.00;100991.42;1743936;81;21142;-78
2022/04/16 03:38:02;;;;;;;22.02;16.95;;;;;;;5.36;100.00;100985.95;1744178;81;21123;-80
2022/04/16 03:40:29;;;;;;;25.40;17.82;;;;;;;5.43;100.00;100981.78;1744174;81;21048;-79
2022/04/16 03:43:00;;;;;;;21.02;17.15;;;;;;;5.49;100.00;100986.65;1744535;81;21524;-78
2022/04/16 03:45:31;;;;;;;22.25;17.12;;;;;;;5.55;100.00;100981.22;1744416;81;21592;-79
2022/04/16 03:48:00;;;;;;;20.90;16.77;;;;;;;5.58;100.00;100975.87;1744352;81;21084;-76
2022/04/16 03:50:30;;;;;;;22.98;17.17;;;;;;;5.63;100.00;100979.09;1744143;81;21164;-78
2022/04/16 03:52:58;;;;;;;22.42;17.17;;;;;;;5.67;100.00;100972.85;1744507;80;21002;-77
2022/04/16 04:01:03;;;;;;;26.95;17.82;;;;;;;5.83;100.00;100969.52;1744505;82;21963;-78
2022/04/16 04:03:31;;;;;;;23.57;17.40;;;;;;;5.90;100.00;100972.17;1744264;80;23406;-82
2022/04/16 04:06:01;;;;;;;23.60;18.42;;;;;;;5.97;100.00;100972.71;1744674;81;21005;-81
2022/04/16 04:08:31;;;;;;;23.52;17.98;;;;;;;6.04;100.00;100970.70;1744291;81;21073;-80
2022/04/16 04:10:58;;;;;;;21.85;17.20;;;;;;;6.11;100.00;100972.05;1741459;81;22241;-78
2022/04/16 04:13:26;;;;;;;23.38;18.12;;;;;;;6.19;100.00;100981.99;1724276;83;21547;-78
2022/04/16 04:15:53;;;;;;;22.98;17.60;;;;;;;6.26;100.00;100979.47;1724220;81;21105;-77
2022/04/16 04:18:22;;;;;;;22.82;16.55;;;;;;;6.34;100.00;100980.38;1724283;81;21073;-81
2022/04/16 04:20:49;;;;;;;20.65;15.10;;;;;;;6.40;100.00;100977.03;1757964;80;21006;-77
2022/04/16 04:23:19;;;;;;;22.82;17.32;;;;;;;6.47;100.00;100976.23;1776320;80;21034;-77
2022/04/16 04:25:46;;;;;;;22.17;17.37;;;;;;;6.54;100.00;100975.47;1776932;80;22348;-76
2022/04/16 04:28:14;;;;;;;24.75;16.85;;;;;;;6.60;100.00;100964.34;1776582;80;21055;-79
2022/04/16 04:30:43;;;;;;;20.80;16.12;;;;;;;6.67;100.00;100964.02;1776322;80;21055;-76
2022/04/16 04:33:10;;;;;;;21.17;17.27;;;;;;;6.73;100.00;100962.39;1776579;80;21106;-76
2022/04/16 04:35:39;;;;;;;25.25;16.97;;;;;;;6.81;100.00;100963.28;1776534;80;21062;-77
2022/04/16 04:38:06;;;;;;;25.32;17.50;;;;;;;6.87;100.00;100959.89;1776413;80;21145;-77
2022/04/16 04:40:35;;;;;;;22.07;17.15;;;;;;;6.93;100.00;100965.20;1775984;80;21078;-77
2022/04/16 04:43:02;;;;;;;22.32;17.07;;;;;;;7.01;100.00;100962.20;1776390;80;21063;-76
2022/04/16 04:45:29;;;;;;;21.57;17.62;;;;;;;7.09;100.00;100967.80;1776637;80;21078;-77
2022/04/16 04:47:58;;;;;;;23.15;18.12;;;;;;;7.17;100.00;100964.30;1776482;80;21071;-81
2022/04/16 04:50:25;;;;;;;23.65;17.25;;;;;;;7.25;100.00;100959.53;1775972;80;22203;-78
2022/04/16 04:52:53;;;;;;;24.87;18.12;;;;;;;7.35;100.00;100961.61;1776468;80;21055;-77
2022/04/16 04:55:20;;;;;;;21.00;17.70;;;;;;;7.44;100.00;100955.92;1775733;79;21073;-76
2022/04/16 04:57:48;;;;;;;22.02;17.62;;;;;;;7.54;100.00;100953.63;1777134;80;21100;-77
2022/04/16 05:00:15;;;;;;;25.43;18.70;;;;;;;7.63;100.00;100957.00;1776604;80;21034;-76
2022/04/16 05:02:47;;;;;;;25.62;18.77;;;;;;;7.71;100.00;100945.73;1776491;80;21059;-78
2022/04/16 05:05:16;;;;;;;24.97;19.67;;;;;;;7.80;100.00;100952.16;1776534;80;21011;-77
2022/04/16 05:07:43;;;;;;;23.07;18.73;;;;;;;7.92;100.00;100944.12;1782126;80;21051;-77
2022/04/16 05:10:12;;;;;;;20.37;17.70;;;;;;;8.05;100.00;100945.53;1782491;80;21587;-77
2022/04/16 05:12:40;;;;;;;25.30;19.85;;;;;;;8.16;100.00;100947.02;1777403;80;21509;-77
2022/04/16 05:15:08;;;;;;;22.13;18.00;;;;;;;8.25;100.00;100946.09;1773496;80;21152;-76
2022/04/16 05:17:40;;;;;;;21.30;18.45;;;;;;;8.30;100.00;100946.64;1773412;80;38496;-76
2022/04/16 05:20:10;;;;;;;23.17;18.57;;;;;;;8.30;100.00;100955.27;1773274;80;21051;-78
2022/04/16 05:22:38;;;;;;;21.90;19.57;;;;;;;8.31;100.00;100954.34;1770398;81;21725;-80
2022/04/16 05:25:07;;;;;;;23.45;18.87;;;;;;;8.32;100.00;100952.13;1770653;81;21026;-78
2022/04/16 05:27:35;;;;;;;22.65;19.60;;;;;;;8.33;100.00;100951.17;1751894;80;21912;-78
2022/04/16 05:30:13;;;;;;;25.85;19.75;;;;;;;8.37;100.00;100942.30;1749353;80;21044;-79
2022/04/16 05:32:40;;;;;;;26.87;23.45;;;;;;;8.46;100.00;100939.59;1724202;81;21368;-77
2022/04/16 05:35:10;;;;;;;27.50;23.45;;;;;;;8.53;100.00;100935.72;1749355;80;21092;-77
2022/04/16 05:37:38;;;;;;;26.85;23.60;;;;;;;8.58;100.00;100934.14;1749380;80;21118;-77
2022/04/16 05:40:07;;;;;;;28.85;23.32;;;;;;;8.64;100.00;100936.83;1749161;80;21090;-77
2022/04/16 05:42:43;;;;;;;25.95;22.15;;;;;;;8.71;100.00;100943.78;1745074;82;20999;-77
2022/04/16 05:45:14;;;;;;;24.40;20.95;;;;;;;8.74;100.00;100940.53;1747724;79;21622;-80
2022/04/16 05:47:42;;;;;;;;;;;;;;;8.76;100.00;100939.98;1774517;79;21722;-78
2022/04/16 05:50:11;;;;;;;23.18;19.57;;;;;;;8.76;100.00;100938.69;1760616;79;20172;-77
2022/04/16 05:52:39;;;;;;;20.72;18.30;;;;;;;8.77;100.00;100940.80;1753589;79;21137;-77
2022/04/16 05:55:08;;;;;;;21.07;18.65;;;;;;;8.82;100.00;100940.03;1788646;78;21084;-77
2022/04/16 05:57:35;;;;;;;24.55;17.37;;;;;;;8.88;100.00;100941.42;1761662;78;21057;-79
2022/04/16 06:00:05;;;;;;;20.88;16.73;;;;;;;8.92;100.00;100940.31;1771273;79;21039;-77
2022/04/16 06:02:34;;;;;;;18.05;15.88;;;;;;;8.98;100.00;100938.14;1743287;79;21123;-77
2022/04/16 06:05:01;;;;;;;20.62;15.55;;;;;;;9.06;100.00;100932.48;1787205;78;21148;-78
2022/04/16 06:07:29;;;;;;;20.32;17.55;;;;;;;9.13;100.00;100927.25;1745315;79;21056;-79
2022/04/16 06:09:57;;;;;;;19.05;16.55;;;;;;;9.20;100.00;100926.85;1758684;79;21085;-79
2022/04/16 06:12:29;;;;;;;17.62;15.58;;;;;;;9.23;100.00;100927.48;1754846;79;21228;-79
2022/04/16 06:14:56;;;;;;;18.95;15.30;;;;;;;9.24;100.00;100920.54;1719911;82;21542;-77
2022/04/16 06:17:23;;;;;;;21.50;14.47;;;;;;;9.29;100.00;100919.77;1731966;81;21156;-78
2022/04/16 06:19:50;;;;;;;18.42;14.83;;;;;;;9.35;100.00;100924.56;1753090;79;21015;-78
2022/04/16 06:22:17;;;;;;;17.07;13.53;;;;;;;9.45;100.00;100919.61;1763346;79;21505;-78
2022/04/16 06:24:45;;;;;;;21.20;12.85;;;;;;;9.54;100.00;100924.66;1776433;79;21033;-79
2022/04/16 06:27:13;;;;;;;17.42;14.30;;;;;;;9.61;100.00;100931.94;1775230;79;21033;-80
2022/04/16 06:29:42;;;;;;;14.47;12.98;;;;;;;9.68;100.00;100938.87;1767627;79;21097;-79
2022/04/16 06:32:10;;;;;;;16.75;14.20;;;;;;;9.73;100.00;100936.83;1767649;79;21664;-78
2022/04/16 06:34:38;;;;;;;18.42;15.40;;;;;;;9.78;100.00;100937.80;1740102;79;21141;-78
2022/04/16 06:37:06;;;;;;;17.05;14.45;;;;;;;9.85;100.00;100935.63;1768597;79;20965;-77
2022/04/16 06:39:33;;;;;;;16.32;13.93;;;;;;;9.92;100.00;100930.38;1777932;79;21020;-78
2022/04/16 06:42:01;;;;;;;17.85;14.58;;;;;;;9.99;100.00;100935.52;1768453;79;21269;-80
2022/04/16 06:44:31;;;;;;;17.02;14.30;;;;;;;10.10;100.00;100932.19;1772534;79;21059;-77
2022/04/16 06:46:58;;;;;;;15.70;13.53;;;;;;;10.21;100.00;100931.48;1740966;81;21088;-86
2022/04/16 06:49:26;;;;;;;15.68;13.53;;;;;;;10.27;100.00;100933.66;1740415;81;21550;-85
2022/04/16 06:51:53;;;;;;;16.73;13.43;;;;;;;10.30;100.00;100937.81;1775589;79;21382;-85
2022/04/16 06:54:20;;;;;;;16.30;14.25;;;;;;;10.35;100.00;100930.05;1786295;79;21492;-83
2022/04/16 06:56:48;;;;;;;17.40;14.55;;;;;;;10.41;100.00;100925.75;1792144;79;21026;-78
2022/04/16 06:59:16;;;;;;;18.82;14.07;;;;;;;10.47;100.00;100919.74;1776767;79;21288;-77
2022/04/16 07:01:43;;;;;;;17.02;14.10;;;;;;;10.48;100.00;100922.26;1768895;79;22014;-77
2022/04/16 07:04:11;;;;;;;17.87;14.38;;;;;;;10.56;100.00;100917.80;1768330;79;21394;-78
2022/04/16 07:06:43;;;;;;;15.80;13.98;;;;;;;10.64;100.00;100913.37;1785436;79;21699;-80
2022/04/16 07:09:07;;;;;;;24.00;15.45;;;;;;;10.72;100.00;100917.56;1778140;79;21038;-77
2022/04/16 07:11:35;;;;;;;15.93;13.60;;;;;;;10.83;100.00;100911.59;1794715;79;21086;-77
2022/04/16 07:14:03;;;;;;;15.55;13.62;;;;;;;10.93;100.00;100915.20;1764939;79;21181;-79
2022/04/16 07:16:31;;;;;;;16.82;13.20;;;;;;;11.01;100.00;100918.09;1768401;79;21725;-79
2022/04/16 07:18:58;;;;;;;16.62;13.62;;;;;;;11.09;100.00;100914.09;1760717;79;21263;-77
2022/04/16 07:21:26;;;;;;;16.62;13.62;;;;;;;11.16;100.00;100920.03;1774696;79;21059;-77
2022/04/16 07:23:55;;;;;;;16.62;13.70;;;;;;;11.20;100.00;100914.97;1757739;79;21555;-77
2022/04/16 07:26:23;;;;;;;18.65;13.53;;;;;;;11.26;100.00;100907.64;1760385;79;21033;-77
2022/04/16 07:28:50;;;;;;;15.10;12.33;;;;;;;11.36;100.00;100904.72;1755983;79;21083;-78
2022/04/16 07:31:17;;;;;;;14.75;13.13;;;;;;;11.48;100.00;100909.50;1760446;80;22598;-77
2022/04/16 07:33:45;;;;;;;15.72;13.85;;;;;;;11.59;100.00;100910.81;1774568;79;21061;-77
2022/04/16 07:36:12;;;;;;;14.18;12.20;;;;;;;11.66;100.00;100901.58;1750965;80;21006;-81
2022/04/16 07:38:43;;;;;;;13.78;11.55;;;;;;;11.71;100.00;100892.59;1745534;81;21149;-77
2022/04/16 07:41:12;;;;;;;13.65;11.88;;;;;;;11.70;100.00;100893.54;1745621;82;21018;-77
2022/04/16 07:43:39;;;;;;;16.45;12.37;;;;;;;11.71;100.00;100886.08;1745666;82;21444;-78
2022/04/16 07:46:08;;;;;;;17.57;12.30;;;;;;;11.75;100.00;100888.80;1745361;82;21697;-80
2022/04/16 07:48:37;;;;;;;15.05;12.25;;;;;;;11.80;100.00;100887.98;1746159;82;21086;-78
2022/04/16 07:51:05;;;;;;;15.30;13.58;;;;;;;11.86;100.00;100882.78;1746403;82;21072;-77
2022/04/16 07:53:32;;;;;;;15.23;12.53;;;;;;;11.92;100.00;100892.26;1745757;82;21061;-80
2022/04/16 07:55:59;;;;;;;16.60;12.37;;;;;;;11.92;100.00;100889.65;1745467;82;21139;-84
2022/04/16 07:58:26;;;;;;;15.10;11.80;;;;;;;11.88;100.00;100888.23;1744600;82;21542;-83
2022/04/16 08:00:54;;;;;;;12.70;11.40;;;;;;;11.87;100.00;100887.87;1745185;82;21121;-85
2022/04/16 08:03:21;;;;;;;13.62;12.18;;;;;;;11.87;100.00;100890.48;1746003;82;21124;-83
2022/04/16 08:05:50;;;;;;;13.53;11.78;;;;;;;11.90;100.00;100899.36;1745793;82;21185;-85
2022/04/16 08:08:17;;;;;;;13.28;11.95;;;;;;;11.99;100.00;100904.41;1745838;82;21148;-85
2022/04/16 08:10:51;;;;;;;15.18;12.90;;;;;;;12.06;100.00;100907.39;1745683;82;20983;-85
2022/04/16 08:13:18;;;;;;;12.78;11.40;;;;;;;12.11;100.00;100909.16;1746283;82;21625;-84
2022/04/16 08:15:48;;;;;;;12.15;10.98;;;;;;;12.17;100.00;100894.32;1746020;82;21042;-85
2022/04/16 08:18:16;;;;;;;12.33;10.95;;;;;;;12.19;100.00;100893.73;1745564;82;20978;-81
2022/04/16 08:20:44;;;;;;;13.13;10.58;;;;;;;12.22;100.00;100895.27;1745617;82;21643;-85
2022/04/16 08:23:11;;;;;;;13.00;11.70;;;;;;;12.28;100.00;100906.08;1725577;82;21058;-86
2022/04/16 08:28:07;;;;;;;12.85;11.60;;;;;;;12.25;100.00;100897.16;1725612;82;21611;-82
2022/04/16 08:30:35;;;;;;;13.75;11.48;;;;;;;12.25;100.00;100892.44;1725427;82;21083;-81
2022/04/16 08:33:03;;;;;;;13.30;10.70;;;;;;;12.24;100.00;100891.58;1762756;81;21190;-82
2022/04/16 08:35:31;;;;;;;13.38;11.30;;;;;;;12.26;100.00;100895.38;1762408;81;21032;-81
2022/04/16 08:38:00;;;;;;;12.28;10.98;;;;;;;12.26;100.00;100893.61;1762470;81;21155;-81
2022/04/16 08:40:27;;;;;;;11.25;10.15;;;;;;;12.28;100.00;100896.94;1755332;81;21196;-81
2022/04/16 08:42:55;;;;;;;12.03;10.45;;;;;;;12.37;100.00;100891.95;1741147;82;21046;-81
2022/04/16 08:45:25;;;;;;;12.37;11.18;;;;;;;12.42;100.00;100892.41;1740818;82;21265;-80
2022/04/16 08:47:54;;;;;;;15.83;12.73;;;;;;;12.40;100.00;100891.23;1741035;82;21058;-81
2022/04/16 08:50:24;;;;;;;14.45;11.70;;;;;;;12.40;100.00;100891.69;1741023;82;21070;-81
2022/04/16 08:52:51;;;;;;;13.38;11.97;;;;;;;12.40;100.00;100891.23;1741061;82;21661;-78
2022/04/16 08:55:18;;;;;;;13.95;11.75;;;;;;;12.44;100.00;100891.33;1740625;82;21062;-78
2022/04/16 08:57:47;;;;;;;12.55;11.05;;;;;;;12.51;100.00;100880.39;1740233;82;21143;-78
2022/04/16 09:00:16;;;;;;;13.78;11.90;;;;;;;12.57;100.00;100886.45;1740017;82;21496;-78
2022/04/16 09:02:57;;;;;;;16.25;12.60;;;;;;;12.62;100.00;100879.08;1740967;82;22010;-81
2022/04/16 09:05:26;;;;;;;16.30;12.82;;;;;;;12.70;100.00;100868.03;1740766;82;21571;-84
2022/04/16 09:07:57;;;;;;;14.70;12.20;;;;;;;12.80;100.00;100871.54;1720270;82;21587;-79
2022/04/16 09:10:29;;;;;;;16.15;12.68;;;;;;;12.90;100.00;100863.78;1710802;81;21827;-80
2022/04/16 09:13:01;;;;;;;14.47;11.88;;;;;;;13.01;100.00;100865.55;1705616;81;21099;-81
2022/04/16 09:15:31;;;;;;;15.18;12.75;;;;;;;13.08;100.00;100857.55;1710331;81;21060;-79
2022/04/16 09:18:06;;;;;;;16.62;13.20;;;;;;;13.19;100.00;100861.40;1709508;81;21027;-75
2022/04/16 09:20:40;;;;;;;13.95;12.45;;;;;;;13.30;100.00;100861.00;1712027;81;21048;-77
2022/04/16 09:23:22;;;;;;;14.45;12.95;;;;;;;13.35;100.00;100866.67;1733581;81;21056;-83
2022/04/16 09:25:51;;;;;;;15.50;12.88;;;;;;;13.36;100.00;100870.48;1735570;81;21005;-83
2022/04/16 09:28:21;;;;;;;41.50;14.73;;;;;;;13.34;100.00;100862.42;1733999;81;21807;-81
2022/04/16 09:30:56;;;;;;;33.75;20.55;;;;;;;13.37;100.00;100859.53;1726713;82;21508;-80
2022/04/16 09:33:25;;;;;;;24.50;15.25;;;;;;;13.42;100.00;100857.38;1751084;81;21065;-77
2022/04/16 09:35:55;;;;;;;17.90;13.93;;;;;;;13.47;100.00;100857.00;1711751;81;21160;-78
2022/04/16 09:38:27;;;;;;;18.00;13.15;;;;;;;13.53;100.00;100852.59;1717163;81;21033;-78
2022/04/16 09:40:52;;;;;;;18.80;14.18;;;;;;;13.57;100.00;100851.36;1723970;81;21119;-78
2022/04/16 09:43:20;;;;;;;16.32;13.95;;;;;;;13.67;100.00;100847.02;1702425;81;21081;-77
2022/04/16 09:45:47;;;;;;;17.45;14.38;;;;;;;13.73;100.00;100857.45;1713647;83;21065;-79
2022/04/16 09:48:16;;;;;;;15.60;12.73;;;;;;;13.77;100.00;100861.94;1713146;82;21042;-83
2022/04/16 09:50:44;;;;;;;15.90;13.78;;;;;;;13.73;100.00;100855.64;1712928;82;21014;-84
2022/04/16 09:53:13;;;;;;;14.83;13.25;;;;;;;13.62;100.00;100844.43;1713216;82;21233;-83
2022/04/16 09:55:41;;;;;;;35.00;16.87;;;;;;;13.55;100.00;100846.72;1713109;82;21109;-79
2022/04/16 09:58:13;;;;;;;29.75;15.18;;;;;;;13.53;100.00;100842.12;1711640;82;21106;-77
2022/04/16 10:00:42;;;;;;;28.60;16.12;;;;;;;13.58;100.00;100850.40;1669388;84;21043;-80
2022/04/16 10:03:11;;;;;;;23.30;14.03;;;;;;;13.58;100.00;100853.51;1681844;84;21000;-77
2022/04/16 10:05:40;;;;;;;17.15;14.03;;;;;;;13.58;100.00;100858.74;1681100;84;21508;-78
2022/04/16 10:08:11;;;;;;;17.82;14.18;;;;;;;13.62;100.00;100859.64;1682599;84;21020;-79
2022/04/16 10:10:42;;;;;;;17.87;14.20;;;;;;;13.65;100.00;100854.65;1692098;83;21532;-78
2022/04/16 10:13:12;;;;;;;19.32;15.45;;;;;;;13.62;100.00;100864.05;1661654;83;22293;-82
2022/04/16 10:16:13;;;;;;;17.80;15.43;;;;;;;13.67;100.00;100860.09;1691438;84;21269;-81
2022/04/16 10:18:42;;;;;;;15.65;13.83;;;;;;;13.82;100.00;100854.02;1719443;82;22011;-75
2022/04/16 10:21:16;;;;;;;19.67;15.90;;;;;;;13.96;100.00;100850.23;1731568;82;21078;-79
2022/04/16 10:23:43;;;;;;;18.23;14.03;;;;;;;14.04;100.00;100834.69;1731107;82;21884;-77
2022/04/16 10:26:13;;;;;;;15.10;13.03;;;;;;;14.14;100.00;100840.45;1733199;81;21130;-78
2022/04/16 10:28:53;;;;;;;17.32;14.73;;;;;;;14.15;100.00;100843.41;1733610;82;21034;-77
2022/04/16 10:31:30;;;;;;;16.23;13.28;;;;;;;14.12;100.00;100839.28;1731977;81;21101;-79
2022/04/16 10:34:05;;;;;;;16.48;13.85;;;;;;;14.09;100.00;100830.86;1716071;81;21073;-78
2022/04/16 10:36:39;;;;;;;17.87;13.75;;;;;;;14.05;100.00;100840.77;1723147;81;21069;-78
2022/04/16 10:39:20;;;;;;;14.50;13.00;;;;;;;14.01;100.00;100839.37;1717591;82;21259;-78
2022/04/16 10:42:02;;;;;;;13.70;12.25;;;;;;;14.02;100.00;100841.84;1729572;82;21036;-79
2022/04/16 10:44:47;;;;;;;18.70;13.80;;;;;;;14.04;100.00;100846.47;1716479;81;21266;-78
2022/04/16 10:47:16;;;;;;;14.15;11.85;;;;;;;14.08;100.00;100841.80;1724100;83;21102;-78
2022/04/16 10:49:44;;;;;;;16.80;13.15;;;;;;;14.12;100.00;100837.97;1727337;82;21050;-77
2022/04/16 10:52:23;;;;;;;15.93;13.45;;;;;;;14.13;100.00;100835.70;1708436;82;21130;-80
2022/04/16 10:55:02;;;;;;;15.20;12.63;;;;;;;14.17;100.00;100831.84;1728782;82;21031;-82
2022/04/16 10:57:29;;;;;;;15.68;13.35;;;;;;;14.28;100.00;100829.59;1723441;82;21043;-79
2022/04/16 10:59:58;;;;;;;15.63;13.22;;;;;;;14.36;100.00;100832.36;1728843;82;21050;-81
2022/04/16 11:02:30;;;;;;;15.15;12.63;;;;;;;14.39;100.00;100835.69;1728603;82;21042;-79
2022/04/16 11:05:05;;;;;;;17.62;12.88;;;;;;;14.34;100.00;100834.78;1746361;81;21333;-82
2022/04/16 11:07:40;;;;;;;14.78;13.20;;;;;;;14.31;100.00;100836.34;1656337;86;21072;-77
2022/04/16 11:10:10;;;;;;;16.10;14.40;;;;;;;14.29;100.00;100838.30;1730563;82;21054;-78
2022/04/16 11:12:40;;;;;;;15.03;13.43;;;;;;;14.24;100.00;100836.53;1731013;82;21066;-79
2022/04/16 11:15:09;;;;;;;25.80;20.60;;;;;;;14.19;100.00;100841.70;1734605;80;21111;-77
2022/04/16 11:17:37;;;;;;;17.80;14.25;;;;;;;14.17;100.00;100842.81;1714108;82;21265;-81
2022/04/16 11:20:07;;;;;;;14.43;12.63;;;;;;;14.14;100.00;100846.50;1735277;81;21013;-77
2022/04/16 11:22:34;;;;;;;15.05;13.45;;;;;;;14.09;100.00;100853.93;1732654;81;20972;-77
2022/04/16 11:25:09;;;;;;;14.73;11.68;;;;;;;14.06;100.00;100849.45;1726367;82;21044;-78
2022/04/16 11:36:04;;;;;;;35.38;18.23;;;;;;;13.90;100.00;100852.56;1714199;82;20987;-78
2022/04/16 11:38:37;;;;;;;31.62;14.25;;;;;;;13.85;100.00;100844.61;1714265;82;21077;-83